EmailTwitter


Surface observations / United Kingdom / EGLL (03772)

Regions: Quebec | Canada | USA | Europe | France | UK | Elsewhere
Station
Display
Info & Location for EGLL (03772) | Help decoding METAR

Weather Conditions observed on 2019/05/21 at 02:50 UTC at LONDON/HEATHROW, UK (EGLL)

Temperature: 10.0 Celsius.

Dewpoint: 7.0 Celsius.

Relative Humidity: 82%

Winds: Variable at 6 km/h or 3 knots.

Mean Sea level Pressure: 101.60 kilopascals.

Horizontal visibility: 6.21 statute miles or 9.94 kilometers.

Coded METAR:

EGLL 210250Z AUTO VRB03KT 9999 NCD 10/07 Q1016 NOSIG=